sensor_id;sensor_type;location;lat;lon;timestamp;pressure;altitude;pressure_sealevel;temperature;humidity
55468;BME280;41332;42.702;23.200;2023-05-19T00:01:45;94223.75;;;9.86;91.53
55468;BME280;41332;42.702;23.200;2023-05-19T00:04:13;94226.69;;;9.85;92.04
55468;BME280;41332;42.702;23.200;2023-05-19T00:06:39;94220.81;;;9.88;91.77
55468;BME280;41332;42.702;23.200;2023-05-19T00:09:08;94221.28;;;9.90;92.27
55468;BME280;41332;42.702;23.200;2023-05-19T00:11:35;94225.88;;;9.93;92.05
55468;BME280;41332;42.702;23.200;2023-05-19T00:14:03;94222.19;;;9.94;92.15
55468;BME280;41332;42.702;23.200;2023-05-19T00:16:29;94225.09;;;9.93;92.81
55468;BME280;41332;42.702;23.200;2023-05-19T00:18:59;94226.03;;;9.97;92.97
55468;BME280;41332;42.702;23.200;2023-05-19T00:21:25;94225.56;;;9.95;93.12
55468;BME280;41332;42.702;23.200;2023-05-19T00:23:51;94220.31;;;9.95;93.50
55468;BME280;41332;42.702;23.200;2023-05-19T00:26:16;94212.75;;;9.93;92.98
55468;BME280;41332;42.702;23.200;2023-05-19T00:28:42;94202.59;;;9.92;93.55
55468;BME280;41332;42.702;23.200;2023-05-19T00:31:07;94203.94;;;9.98;93.31
55468;BME280;41332;42.702;23.200;2023-05-19T00:33:33;94208.91;;;9.90;93.05
55468;BME280;41332;42.702;23.200;2023-05-19T00:35:59;94206.28;;;9.90;93.48
55468;BME280;41332;42.702;23.200;2023-05-19T00:38:27;94205.66;;;9.94;93.04
55468;BME280;41332;42.702;23.200;2023-05-19T00:40:52;94208.75;;;9.96;92.32
55468;BME280;41332;42.702;23.200;2023-05-19T00:43:18;94209.34;;;10.01;89.88
55468;BME280;41332;42.702;23.200;2023-05-19T00:45:44;94216.16;;;9.94;90.85
55468;BME280;41332;42.702;23.200;2023-05-19T00:48:11;94205.66;;;9.94;90.96
55468;BME280;41332;42.702;23.200;2023-05-19T00:50:36;94199.97;;;9.92;90.87
55468;BME280;41332;42.702;23.200;2023-05-19T00:53:01;94200.28;;;9.90;90.74
55468;BME280;41332;42.702;23.200;2023-05-19T00:55:28;94191.63;;;9.89;90.50
55468;BME280;41332;42.702;23.200;2023-05-19T00:57:55;94190.25;;;9.83;90.62
55468;BME280;41332;42.702;23.200;2023-05-19T01:00:21;94193.34;;;9.85;90.66
55468;BME280;41332;42.702;23.200;2023-05-19T01:02:46;94200.47;;;9.76;90.78
55468;BME280;41332;42.702;23.200;2023-05-19T01:05:12;94198.00;;;9.71;90.67
55468;BME280;41332;42.702;23.200;2023-05-19T01:07:39;94200.94;;;9.69;90.40
55468;BME280;41332;42.702;23.200;2023-05-19T01:10:05;94203.25;;;9.71;90.50
55468;BME280;41332;42.702;23.200;2023-05-19T01:12:31;94201.53;;;9.66;90.58
55468;BME280;41332;42.702;23.200;2023-05-19T01:14:57;94199.22;;;9.56;90.70
55468;BME280;41332;42.702;23.200;2023-05-19T01:17:26;94201.84;;;9.56;90.90
55468;BME280;41332;42.702;23.200;2023-05-19T01:20:05;94194.47;;;9.49;90.78
55468;BME280;41332;42.702;23.200;2023-05-19T01:33:04;94204.34;;;9.35;91.50
55468;BME280;41332;42.702;23.200;2023-05-19T01:35:30;94208.94;;;9.29;91.71
55468;BME280;41332;42.702;23.200;2023-05-19T01:37:59;94206.19;;;9.26;92.10
55468;BME280;41332;42.702;23.200;2023-05-19T01:40:27;94201.28;;;9.24;91.73
55468;BME280;41332;42.702;23.200;2023-05-19T01:42:55;94202.50;;;9.18;91.66
55468;BME280;41332;42.702;23.200;2023-05-19T01:45:21;94202.94;;;9.20;91.29
55468;BME280;41332;42.702;23.200;2023-05-19T01:47:51;94209.28;;;9.10;91.05
55468;BME280;41332;42.702;23.200;2023-05-19T01:50:17;94210.81;;;9.11;90.74
55468;BME280;41332;42.702;23.200;2023-05-19T01:52:42;94212.81;;;9.05;90.73
55468;BME280;41332;42.702;23.200;2023-05-19T01:55:08;94218.50;;;8.99;90.85
55468;BME280;41332;42.702;23.200;2023-05-19T01:58:00;94213.41;;;8.94;91.55
55468;BME280;41332;42.702;23.200;2023-05-19T02:00:49;94209.69;;;8.86;92.15
55468;BME280;41332;42.702;23.200;2023-05-19T02:05:54;94216.16;;;8.88;92.74
55468;BME280;41332;42.702;23.200;2023-05-19T02:08:29;94209.50;;;8.73;92.75
55468;BME280;41332;42.702;23.200;2023-05-19T02:11:13;94208.75;;;8.73;92.33
55468;BME280;41332;42.702;23.200;2023-05-19T02:13:42;94214.75;;;8.65;92.83
55468;BME280;41332;42.702;23.200;2023-05-19T02:16:09;94211.81;;;8.66;92.09
55468;BME280;41332;42.702;23.200;2023-05-19T02:18:38;94207.94;;;8.64;92.48
55468;BME280;41332;42.702;23.200;2023-05-19T02:21:04;94213.00;;;8.60;92.94
55468;BME280;41332;42.702;23.200;2023-05-19T02:23:29;94223.19;;;8.62;93.05
55468;BME280;41332;42.702;23.200;2023-05-19T02:25:55;94227.97;;;8.60;92.43
55468;BME280;41332;42.702;23.200;2023-05-19T02:28:20;94220.41;;;8.58;92.18
55468;BME280;41332;42.702;23.200;2023-05-19T02:30:46;94228.41;;;8.53;92.29
55468;BME280;41332;42.702;23.200;2023-05-19T02:33:11;94227.31;;;8.54;92.34
55468;BME280;41332;42.702;23.200;2023-05-19T02:35:36;94222.06;;;8.54;92.73
55468;BME280;41332;42.702;23.200;2023-05-19T02:38:02;94222.88;;;8.54;93.33
55468;BME280;41332;42.702;23.200;2023-05-19T02:40:27;94222.38;;;8.52;93.95
55468;BME280;41332;42.702;23.200;2023-05-19T02:42:53;94219.19;;;8.55;94.38
55468;BME280;41332;42.702;23.200;2023-05-19T02:45:18;94213.94;;;8.55;95.85
55468;BME280;41332;42.702;23.200;2023-05-19T02:47:43;94221.81;;;8.64;95.56
55468;BME280;41332;42.702;23.200;2023-05-19T02:50:09;94222.41;;;8.61;95.21
55468;BME280;41332;42.702;23.200;2023-05-19T02:52:35;94229.22;;;8.62;96.13
55468;BME280;41332;42.702;23.200;2023-05-19T02:55:00;94222.13;;;8.63;95.62
55468;BME280;41332;42.702;23.200;2023-05-19T02:57:28;94217.94;;;8.62;96.47
55468;BME280;41332;42.702;23.200;2023-05-19T02:59:54;94227.34;;;8.63;96.42
55468;BME280;41332;42.702;23.200;2023-05-19T03:02:19;94230.91;;;8.67;96.05
55468;BME280;41332;42.702;23.200;2023-05-19T03:04:44;94227.03;;;8.64;95.77
55468;BME280;41332;42.702;23.200;2023-05-19T03:07:10;94228.91;;;8.64;95.75
55468;BME280;41332;42.702;23.200;2023-05-19T03:09:37;94235.50;;;8.61;96.06
55468;BME280;41332;42.702;23.200;2023-05-19T03:12:03;94238.13;;;8.61;95.75
55468;BME280;41332;42.702;23.200;2023-05-19T03:14:29;94246.28;;;8.60;95.71
55468;BME280;41332;42.702;23.200;2023-05-19T03:16:54;94243.38;;;8.61;96.11
55468;BME280;41332;42.702;23.200;2023-05-19T03:19:20;94230.13;;;8.66;95.11
55468;BME280;41332;42.702;23.200;2023-05-19T03:21:45;94235.38;;;8.66;94.75
55468;BME280;41332;42.702;23.200;2023-05-19T03:24:12;94237.84;;;8.71;94.75
55468;BME280;41332;42.702;23.200;2023-05-19T03:26:37;94242.31;;;8.71;94.99
55468;BME280;41332;42.702;23.200;2023-05-19T03:29:02;94243.09;;;8.71;95.03
55468;BME280;41332;42.702;23.200;2023-05-19T03:31:28;94236.78;;;8.72;94.88
55468;BME280;41332;42.702;23.200;2023-05-19T03:33:55;94243.41;;;8.70;95.33
55468;BME280;41332;42.702;23.200;2023-05-19T03:36:22;94238.47;;;8.77;95.45
55468;BME280;41332;42.702;23.200;2023-05-19T03:38:48;94243.56;;;8.82;94.84
55468;BME280;41332;42.702;23.200;2023-05-19T03:41:13;94238.03;;;8.84;94.76
55468;BME280;41332;42.702;23.200;2023-05-19T03:43:39;94237.25;;;8.83;95.06
55468;BME280;41332;42.702;23.200;2023-05-19T03:46:04;94233.25;;;8.86;94.81
55468;BME280;41332;42.702;23.200;2023-05-19T03:48:30;94225.88;;;8.88;95.24
55468;BME280;41332;42.702;23.200;2023-05-19T03:50:55;94228.94;;;8.90;94.89
55468;BME280;41332;42.702;23.200;2023-05-19T03:53:20;94240.97;;;8.91;95.25
55468;BME280;41332;42.702;23.200;2023-05-19T03:55:46;94239.88;;;8.83;94.89
55468;BME280;41332;42.702;23.200;2023-05-19T03:58:13;94246.53;;;8.89;94.14
55468;BME280;41332;42.702;23.200;2023-05-19T04:00:40;94241.59;;;8.88;94.37
55468;BME280;41332;42.702;23.200;2023-05-19T04:03:05;94240.81;;;8.87;93.97
55468;BME280;41332;42.702;23.200;2023-05-19T04:05:32;94242.97;;;8.85;93.83
55468;BME280;41332;42.702;23.200;2023-05-19T04:07:57;94244.66;;;8.90;94.04
55468;BME280;41332;42.702;23.200;2023-05-19T04:10:26;94238.84;;;8.93;94.24
55468;BME280;41332;42.702;23.200;2023-05-19T04:12:51;94247.63;;;8.97;94.23
55468;BME280;41332;42.702;23.200;2023-05-19T04:15:16;94249.31;;;9.02;94.84
55468;BME280;41332;42.702;23.200;2023-05-19T04:17:42;94252.75;;;9.11;95.05
55468;BME280;41332;42.702;23.200;2023-05-19T04:20:07;94256.44;;;9.28;95.79
55468;BME280;41332;42.702;23.200;2023-05-19T04:22:34;94260.63;;;9.37;95.63
55468;BME280;41332;42.702;23.200;2023-05-19T04:24:59;94258.63;;;9.52;96.46
55468;BME280;41332;42.702;23.200;2023-05-19T04:27:24;94251.69;;;9.65;96.94
55468;BME280;41332;42.702;23.200;2023-05-19T04:29:52;94255.97;;;9.78;96.79
55468;BME280;41332;42.702;23.200;2023-05-19T04:32:19;94252.72;;;9.99;96.20
55468;BME280;41332;42.702;23.200;2023-05-19T04:34:44;94258.88;;;10.12;95.62
55468;BME280;41332;42.702;23.200;2023-05-19T04:37:13;94257.13;;;10.33;94.38
55468;BME280;41332;42.702;23.200;2023-05-19T04:39:43;94259.75;;;10.42;93.36
55468;BME280;41332;42.702;23.200;2023-05-19T04:42:09;94257.22;;;10.54;92.28
55468;BME280;41332;42.702;23.200;2023-05-19T04:44:38;94264.44;;;10.66;91.32
55468;BME280;41332;42.702;23.200;2023-05-19T04:47:06;94265.78;;;10.81;91.15
55468;BME280;41332;42.702;23.200;2023-05-19T04:49:33;94262.78;;;10.92;90.92
55468;BME280;41332;42.702;23.200;2023-05-19T04:52:06;94265.78;;;11.11;89.34
55468;BME280;41332;42.702;23.200;2023-05-19T04:54:33;94266.19;;;11.22;89.45
55468;BME280;41332;42.702;23.200;2023-05-19T04:56:59;94275.69;;;11.35;nan
55468;BME280;41332;42.702;23.200;2023-05-19T04:59:24;94275.31;;;11.46;88.19
55468;BME280;41332;42.702;23.200;2023-05-19T05:01:49;94265.81;;;11.53;87.52
55468;BME280;41332;42.702;23.200;2023-05-19T05:04:15;94271.13;;;11.66;87.86
55468;BME280;41332;42.702;23.200;2023-05-19T05:06:40;94273.25;;;11.73;88.09
55468;BME280;41332;42.702;23.200;2023-05-19T05:09:12;94278.31;;;11.78;86.00
55468;BME280;41332;42.702;23.200;2023-05-19T05:11:37;94268.16;;;11.88;86.13
55468;BME280;41332;42.702;23.200;2023-05-19T05:14:03;94266.25;;;11.98;86.17
55468;BME280;41332;42.702;23.200;2023-05-19T05:16:29;94267.94;;;12.15;86.02
55468;BME280;41332;42.702;23.200;2023-05-19T05:18:55;94269.06;;;12.26;85.74
55468;BME280;41332;42.702;23.200;2023-05-19T05:21:22;94277.66;;;12.35;84.98
55468;BME280;41332;42.702;23.200;2023-05-19T05:23:49;94275.78;;;12.36;82.58
55468;BME280;41332;42.702;23.200;2023-05-19T05:26:18;94269.22;;;12.55;84.13
55468;BME280;41332;42.702;23.200;2023-05-19T05:28:49;94280.31;;;12.60;82.06
55468;BME280;41332;42.702;23.200;2023-05-19T05:31:15;94262.13;;;12.67;81.64
55468;BME280;41332;42.702;23.200;2023-05-19T05:33:41;94262.00;;;12.76;82.08
55468;BME280;41332;42.702;23.200;2023-05-19T05:36:07;94272.66;;;12.92;82.88
55468;BME280;41332;42.702;23.200;2023-05-19T05:38:32;94275.41;;;12.96;81.78
55468;BME280;41332;42.702;23.200;2023-05-19T05:40:57;94272.75;;;13.08;80.72
55468;BME280;41332;42.702;23.200;2023-05-19T05:43:23;94270.22;;;13.24;80.55
55468;BME280;41332;42.702;23.200;2023-05-19T05:45:48;94265.72;;;13.25;79.27
55468;BME280;41332;42.702;23.200;2023-05-19T05:48:14;94270.78;;;13.42;80.17
55468;BME280;41332;42.702;23.200;2023-05-19T05:50:42;94281.75;;;13.57;80.62
55468;BME280;41332;42.702;23.200;2023-05-19T05:53:08;94278.81;;;13.74;79.89
55468;BME280;41332;42.702;23.200;2023-05-19T05:55:34;94281.78;;;13.85;78.00
55468;BME280;41332;42.702;23.200;2023-05-19T05:57:59;94287.78;;;13.98;76.99
55468;BME280;41332;42.702;23.200;2023-05-19T06:00:26;94297.28;;;14.15;76.26
55468;BME280;41332;42.702;23.200;2023-05-19T06:02:52;94286.59;;;14.11;75.67
55468;BME280;41332;42.702;23.200;2023-05-19T06:05:17;94288.63;;;14.02;74.91
55468;BME280;41332;42.702;23.200;2023-05-19T06:07:43;94293.28;;;14.21;75.66
55468;BME280;41332;42.702;23.200;2023-05-19T06:10:08;94296.72;;;14.38;75.45
55468;BME280;41332;42.702;23.200;2023-05-19T06:12:34;94293.91;;;14.30;75.58
55468;BME280;41332;42.702;23.200;2023-05-19T06:15:04;94299.09;;;14.27;75.01
55468;BME280;41332;42.702;23.200;2023-05-19T06:17:30;94301.13;;;14.17;74.51
55468;BME280;41332;42.702;23.200;2023-05-19T06:19:55;94297.75;;;14.33;75.44
55468;BME280;41332;42.702;23.200;2023-05-19T06:22:20;94293.16;;;14.46;72.33
55468;BME280;41332;42.702;23.200;2023-05-19T06:24:46;94291.84;;;14.68;74.13
55468;BME280;41332;42.702;23.200;2023-05-19T06:27:11;94294.22;;;14.89;74.10
55468;BME280;41332;42.702;23.200;2023-05-19T06:29:37;94298.72;;;15.05;71.41
55468;BME280;41332;42.702;23.200;2023-05-19T06:32:02;94302.41;;;15.16;71.68
55468;BME280;41332;42.702;23.200;2023-05-19T06:34:28;94299.84;;;15.20;70.85
55468;BME280;41332;42.702;23.200;2023-05-19T06:36:53;94307.63;;;14.96;69.32
55468;BME280;41332;42.702;23.200;2023-05-19T06:39:18;94306.09;;;14.95;70.08
55468;BME280;41332;42.702;23.200;2023-05-19T06:41:44;94300.50;;;15.16;70.29
55468;BME280;41332;42.702;23.200;2023-05-19T06:44:09;94308.31;;;15.45;69.96
55468;BME280;41332;42.702;23.200;2023-05-19T06:46:35;94309.47;;;15.63;69.89
55468;BME280;41332;42.702;23.200;2023-05-19T06:49:00;94308.75;;;15.82;68.31
55468;BME280;41332;42.702;23.200;2023-05-19T06:51:26;94306.44;;;15.81;67.45
55468;BME280;41332;42.702;23.200;2023-05-19T06:53:51;94301.63;;;15.87;67.31
55468;BME280;41332;42.702;23.200;2023-05-19T06:56:16;94308.69;;;15.63;67.21
55468;BME280;41332;42.702;23.200;2023-05-19T06:58:44;94316.50;;;15.56;66.57
55468;BME280;41332;42.702;23.200;2023-05-19T07:01:10;94311.25;;;15.59;68.04
55468;BME280;41332;42.702;23.200;2023-05-19T07:03:35;94316.72;;;15.66;67.58
55468;BME280;41332;42.702;23.200;2023-05-19T07:06:01;94318.09;;;15.60;65.44
55468;BME280;41332;42.702;23.200;2023-05-19T07:08:27;94327.09;;;15.56;66.38
55468;BME280;41332;42.702;23.200;2023-05-19T07:10:52;94317.75;;;15.62;66.66
55468;BME280;41332;42.702;23.200;2023-05-19T07:13:19;94313.00;;;15.87;67.15
55468;BME280;41332;42.702;23.200;2023-05-19T07:15:45;94317.72;;;15.78;66.48
55468;BME280;41332;42.702;23.200;2023-05-19T07:18:10;94324.38;;;15.72;65.80
55468;BME280;41332;42.702;23.200;2023-05-19T07:20:35;94327.00;;;15.88;68.94
55468;BME280;41332;42.702;23.200;2023-05-19T07:23:01;94315.91;;;16.21;67.81
55468;BME280;41332;42.702;23.200;2023-05-19T07:25:27;94327.00;;;16.46;66.04
55468;BME280;41332;42.702;23.200;2023-05-19T07:27:55;94330.28;;;16.40;63.74
55468;BME280;41332;42.702;23.200;2023-05-19T07:30:21;94327.25;;;16.61;64.84
55468;BME280;41332;42.702;23.200;2023-05-19T07:32:46;94320.00;;;16.81;63.68
55468;BME280;41332;42.702;23.200;2023-05-19T07:35:12;94328.59;;;16.74;62.05
55468;BME280;41332;42.702;23.200;2023-05-19T07:37:37;94323.06;;;16.83;60.70
55468;BME280;41332;42.702;23.200;2023-05-19T07:40:03;94323.31;;;16.31;62.28
55468;BME280;41332;42.702;23.200;2023-05-19T07:42:30;94323.66;;;16.30;63.05
55468;BME280;41332;42.702;23.200;2023-05-19T07:57:24;94315.00;;;17.49;61.14
55468;BME280;41332;42.702;23.200;2023-05-19T07:59:49;94313.56;;;17.55;59.16
55468;BME280;41332;42.702;23.200;2023-05-19T08:02:15;94322.34;;;16.86;59.87
55468;BME280;41332;42.702;23.200;2023-05-19T08:04:40;94312.91;;;17.08;57.95
55468;BME280;41332;42.702;23.200;2023-05-19T08:07:05;94312.88;;;17.35;60.66
55468;BME280;41332;42.702;23.200;2023-05-19T08:09:31;94316.94;;;17.25;60.69
55468;BME280;41332;42.702;23.200;2023-05-19T08:11:59;94317.56;;;17.19;59.88
55468;BME280;41332;42.702;23.200;2023-05-19T08:14:25;94319.38;;;17.11;59.42
55468;BME280;41332;42.702;23.200;2023-05-19T08:16:51;94327.09;;;16.54;61.10
55468;BME280;41332;42.702;23.200;2023-05-19T08:19:16;94314.31;;;17.29;61.60
55468;BME280;41332;42.702;23.200;2023-05-19T08:21:42;94320.09;;;17.35;62.22
55468;BME280;41332;42.702;23.200;2023-05-19T08:24:08;94310.78;;;17.48;63.33
55468;BME280;41332;42.702;23.200;2023-05-19T08:26:34;94309.94;;;17.40;62.44
55468;BME280;41332;42.702;23.200;2023-05-19T08:28:59;94305.66;;;17.62;62.07
55468;BME280;41332;42.702;23.200;2023-05-19T08:31:25;94309.47;;;17.61;61.12
55468;BME280;41332;42.702;23.200;2023-05-19T08:33:51;94311.81;;;17.67;59.72
55468;BME280;41332;42.702;23.200;2023-05-19T08:36:17;94301.69;;;17.76;59.78
55468;BME280;41332;42.702;23.200;2023-05-19T08:38:42;94302.47;;;18.07;60.26
55468;BME280;41332;42.702;23.200;2023-05-19T08:41:08;94294.72;;;18.28;58.86
55468;BME280;41332;42.702;23.200;2023-05-19T08:43:33;94304.69;;;18.35;59.71
55468;BME280;41332;42.702;23.200;2023-05-19T08:45:59;94301.59;;;18.33;59.33
55468;BME280;41332;42.702;23.200;2023-05-19T08:48:27;94307.66;;;18.30;58.58
55468;BME280;41332;42.702;23.200;2023-05-19T08:51:19;94301.13;;;18.24;58.84
55468;BME280;41332;42.702;23.200;2023-05-19T08:53:50;94308.50;;;18.38;57.91
55468;BME280;41332;42.702;23.200;2023-05-19T08:56:22;94309.44;;;18.56;57.98
55468;BME280;41332;42.702;23.200;2023-05-19T08:58:50;94309.06;;;18.58;58.95
55468;BME280;41332;42.702;23.200;2023-05-19T09:01:16;94302.75;;;18.73;57.28
55468;BME280;41332;42.702;23.200;2023-05-19T09:03:46;94307.78;;;18.82;56.37
55468;BME280;41332;42.702;23.200;2023-05-19T09:06:13;94311.28;;;18.90;58.31
55468;BME280;41332;42.702;23.200;2023-05-19T09:08:40;94309.56;;;18.71;55.72
55468;BME280;41332;42.702;23.200;2023-05-19T09:11:07;94305.84;;;18.38;53.91
55468;BME280;41332;42.702;23.200;2023-05-19T09:13:33;94293.28;;;18.76;55.47
55468;BME280;41332;42.702;23.200;2023-05-19T09:15:59;94292.53;;;18.79;55.17
55468;BME280;41332;42.702;23.200;2023-05-19T09:18:24;94285.75;;;18.85;58.77
55468;BME280;41332;42.702;23.200;2023-05-19T09:20:55;94283.69;;;19.13;56.65
55468;BME280;41332;42.702;23.200;2023-05-19T09:23:26;94290.53;;;19.14;53.99
55468;BME280;41332;42.702;23.200;2023-05-19T09:25:53;94292.03;;;19.07;55.56
55468;BME280;41332;42.702;23.200;2023-05-19T09:28:29;94284.94;;;19.26;56.16
55468;BME280;41332;42.702;23.200;2023-05-19T09:31:06;94282.50;;;19.03;55.33
55468;BME280;41332;42.702;23.200;2023-05-19T09:33:36;94278.97;;;18.91;53.73
55468;BME280;41332;42.702;23.200;2023-05-19T09:36:03;94281.91;;;19.27;55.50
55468;BME280;41332;42.702;23.200;2023-05-19T09:38:34;94280.69;;;19.14;54.59
55468;BME280;41332;42.702;23.200;2023-05-19T09:41:00;94288.09;;;18.90;54.78
55468;BME280;41332;42.702;23.200;2023-05-19T09:43:29;94290.41;;;18.96;55.90
55468;BME280;41332;42.702;23.200;2023-05-19T09:46:05;94288.69;;;18.32;53.88
55468;BME280;41332;42.702;23.200;2023-05-19T09:48:32;94282.63;;;18.76;54.20
55468;BME280;41332;42.702;23.200;2023-05-19T09:51:00;94282.28;;;18.81;56.02
55468;BME280;41332;42.702;23.200;2023-05-19T09:53:25;94283.41;;;18.80;55.01
55468;BME280;41332;42.702;23.200;2023-05-19T09:55:54;94280.75;;;18.80;53.59
55468;BME280;41332;42.702;23.200;2023-05-19T09:58:23;94277.38;;;18.87;56.61
55468;BME280;41332;42.702;23.200;2023-05-19T10:00:49;94274.78;;;18.90;55.38
55468;BME280;41332;42.702;23.200;2023-05-19T10:03:15;94275.19;;;18.92;51.31
55468;BME280;41332;42.702;23.200;2023-05-19T10:05:42;94276.13;;;19.22;51.38
55468;BME280;41332;42.702;23.200;2023-05-19T10:08:08;94273.25;;;18.44;54.11
55468;BME280;41332;42.702;23.200;2023-05-19T10:10:35;94270.94;;;18.43;53.04
55468;BME280;41332;42.702;23.200;2023-05-19T10:24:25;94263.00;;;18.91;53.05
55468;BME280;41332;42.702;23.200;2023-05-19T10:26:59;94258.47;;;18.96;53.50
55468;BME280;41332;42.702;23.200;2023-05-19T10:29:32;94253.53;;;18.94;52.43
55468;BME280;41332;42.702;23.200;2023-05-19T10:32:03;94251.75;;;19.09;51.55
55468;BME280;41332;42.702;23.200;2023-05-19T10:40:20;94258.66;;;19.21;51.74
55468;BME280;41332;42.702;23.200;2023-05-19T10:43:01;94240.69;;;19.07;50.42
55468;BME280;41332;42.702;23.200;2023-05-19T10:45:35;94259.03;;;19.23;51.24
55468;BME280;41332;42.702;23.200;2023-05-19T10:48:10;94248.34;;;19.19;50.08
55468;BME280;41332;42.702;23.200;2023-05-19T10:50:35;94241.53;;;19.18;50.42
55468;BME280;41332;42.702;23.200;2023-05-19T10:53:01;94242.38;;;19.37;51.61
55468;BME280;41332;42.702;23.200;2023-05-19T10:55:52;94250.53;;;19.69;52.10
55468;BME280;41332;42.702;23.200;2023-05-19T11:01:15;94242.66;;;19.95;48.79
55468;BME280;41332;42.702;23.200;2023-05-19T11:03:48;94235.59;;;19.47;50.60
55468;BME280;41332;42.702;23.200;2023-05-19T11:06:36;94242.50;;;19.58;51.81
55468;BME280;41332;42.702;23.200;2023-05-19T11:09:13;94244.00;;;19.52;49.42
55468;BME280;41332;42.702;23.200;2023-05-19T11:11:49;94242.44;;;19.44;49.29
55468;BME280;41332;42.702;23.200;2023-05-19T11:14:21;94237.09;;;19.44;49.07
55468;BME280;41332;42.702;23.200;2023-05-19T11:16:50;94229.53;;;19.53;47.83
55468;BME280;41332;42.702;23.200;2023-05-19T11:19:28;94239.34;;;19.38;49.18
55468;BME280;41332;42.702;23.200;2023-05-19T11:21:55;94241.97;;;19.35;49.04
55468;BME280;41332;42.702;23.200;2023-05-19T11:27:33;94234.09;;;19.53;50.23
55468;BME280;41332;42.702;23.200;2023-05-19T11:32:31;94228.28;;;19.29;48.09
55468;BME280;41332;42.702;23.200;2023-05-19T11:34:58;94224.94;;;19.50;47.08
55468;BME280;41332;42.702;23.200;2023-05-19T11:37:24;94226.44;;;19.48;47.79
55468;BME280;41332;42.702;23.200;2023-05-19T11:39:51;94219.53;;;19.32;47.99
55468;BME280;41332;42.702;23.200;2023-05-19T11:42:17;94224.41;;;19.19;50.05
55468;BME280;41332;42.702;23.200;2023-05-19T11:44:43;94218.28;;;19.15;50.32
55468;BME280;41332;42.702;23.200;2023-05-19T11:47:12;94219.06;;;19.19;50.42
55468;BME280;41332;42.702;23.200;2023-05-19T11:49:42;94213.75;;;19.19;50.22
55468;BME280;41332;42.702;23.200;2023-05-19T11:52:07;94216.41;;;19.16;50.34
55468;BME280;41332;42.702;23.200;2023-05-19T11:54:33;94217.88;;;19.09;49.48
55468;BME280;41332;42.702;23.200;2023-05-19T11:57:02;94224.09;;;18.76;47.80
